Time;durP1;ratioP1;P1;durP2;ratioP2;P2;SDS_P1;SDS_P2;PMS_P1;PMS_P2;Temp;Humidity;BMP_temperature;BMP_pressure;BME280_temperature;BME280_humidity;BME280_pressure;Samples;Min_cycle;Max_cycle;Signal;HPM_P1;HPM_P2
2020/12/07 00:01:06;;;;;;;22.73;15.70;;;;;;;9.03;73.01;94932.31;4990099;28;20438;-70
2020/12/07 00:03:32;;;;;;;24.87;15.40;;;;;;;9.18;72.52;94942.97;4989301;28;20459;-73
2020/12/07 00:06:00;;;;;;;24.67;16.10;;;;;;;8.92;73.20;94948.91;4989762;28;20979;-70
2020/12/07 00:08:27;;;;;;;22.43;14.73;;;;;;;9.07;73.09;94946.50;4989348;28;20437;-71
2020/12/07 00:10:53;;;;;;;22.37;14.43;;;;;;;9.11;73.07;94942.38;4989732;28;21003;-71
2020/12/07 00:13:20;;;;;;;19.33;13.77;;;;;;;8.84;73.52;94935.50;4989379;28;20524;-70
2020/12/07 00:15:46;;;;;;;18.47;13.37;;;;;;;8.88;73.70;94942.63;4989987;28;20485;-71
2020/12/07 00:18:13;;;;;;;18.50;13.15;;;;;;;8.75;74.39;94929.13;4989476;28;20477;-74
2020/12/07 00:20:45;;;;;;;19.87;14.20;;;;;;;8.75;73.56;94932.53;4989670;28;20615;-73
2020/12/07 00:23:12;;;;;;;22.17;14.48;;;;;;;8.62;74.26;94930.28;4989087;28;20437;-72
2020/12/07 00:25:39;;;;;;;22.00;13.52;;;;;;;8.63;74.90;94926.63;4993585;28;20195;-73
2020/12/07 00:28:05;;;;;;;20.37;13.33;;;;;;;8.52;74.87;94929.34;4991949;28;20277;-72
2020/12/07 00:30:32;;;;;;;25.20;14.88;;;;;;;8.49;74.97;94932.44;4989264;28;20477;-73
2020/12/07 00:32:59;;;;;;;21.38;14.90;;;;;;;8.39;75.81;94916.63;4989429;28;20206;-72
2020/12/07 00:35:26;;;;;;;21.40;14.80;;;;;;;8.47;75.86;94940.50;4990053;28;20960;-70
2020/12/07 00:37:53;;;;;;;25.93;15.60;;;;;;;8.57;75.33;94930.22;4993096;28;20480;-71
2020/12/07 00:40:19;;;;;;;23.73;16.93;;;;;;;8.59;75.71;94930.75;4992814;28;20511;-70
2020/12/07 00:42:45;;;;;;;26.40;16.83;;;;;;;8.69;74.74;94927.47;4992887;28;20437;-72
2020/12/07 00:45:12;;;;;;;20.77;13.95;;;;;;;8.54;75.18;94909.78;4992589;28;20526;-72
2020/12/07 00:47:38;;;;;;;19.93;13.60;;;;;;;8.50;75.19;94915.75;4993072;28;20273;-74
2020/12/07 00:50:05;;;;;;;19.95;13.23;;;;;;;8.49;75.38;94901.91;4992544;28;20452;-70
2020/12/07 00:52:31;;;;;;;20.20;13.27;;;;;;;8.51;75.61;94909.47;4992532;28;20179;-72
2020/12/07 00:54:58;;;;;;;20.10;13.00;;;;;;;8.41;75.79;94897.06;4974835;28;21145;-73
2020/12/07 00:57:25;;;;;;;21.13;14.03;;;;;;;8.51;75.64;94894.59;4975195;28;20517;-71
2020/12/07 00:59:51;;;;;;;18.65;13.35;;;;;;;8.50;75.65;94902.69;4974804;28;20453;-71
2020/12/07 01:02:18;;;;;;;23.37;13.87;;;;;;;8.50;75.22;94895.66;4975466;28;20203;-69
2020/12/07 01:04:45;;;;;;;20.58;13.65;;;;;;;8.48;75.42;94889.88;4992582;28;20570;-72
2020/12/07 01:07:13;;;;;;;19.58;12.73;;;;;;;8.41;75.71;94878.81;4992747;28;20724;-70
2020/12/07 01:09:43;;;;;;;20.17;13.73;;;;;;;8.50;75.46;94890.44;4974562;28;20681;-73
2020/12/07 01:12:10;;;;;;;20.30;13.13;;;;;;;8.43;75.96;94892.41;4992462;28;20445;-71
2020/12/07 01:14:43;;;;;;;19.70;12.93;;;;;;;8.68;74.73;94903.19;4974586;28;20297;-72
2020/12/07 01:17:12;;;;;;;18.87;13.23;;;;;;;8.76;75.07;94900.13;4975023;28;20517;-71
2020/12/07 01:19:39;;;;;;;21.17;13.90;;;;;;;8.70;74.08;94882.03;4973913;28;20434;-72
2020/12/07 01:22:10;;;;;;;17.97;12.83;;;;;;;8.59;75.67;94886.38;4992282;28;20452;-72
2020/12/07 01:24:38;;;;;;;21.87;14.80;;;;;;;8.81;74.15;94879.28;4991693;28;20458;-72
2020/12/07 01:27:05;;;;;;;22.10;14.27;;;;;;;8.60;75.10;94876.69;4974467;28;20816;-72
2020/12/07 01:29:34;;;;;;;20.43;14.07;;;;;;;8.57;74.89;94859.69;4973964;28;20941;-71
2020/12/07 01:32:01;;;;;;;22.97;15.40;;;;;;;8.77;74.62;94878.22;4992063;28;21305;-72
2020/12/07 01:34:27;;;;;;;27.47;18.63;;;;;;;8.72;75.00;94875.53;4991734;28;20441;-71
2020/12/07 01:36:54;;;;;;;32.00;19.37;;;;;;;8.89;74.23;94868.41;4992128;28;20584;-72
2020/12/07 01:39:21;;;;;;;30.38;20.17;;;;;;;8.82;73.97;94859.19;4974356;28;20442;-71
2020/12/07 01:41:48;;;;;;;33.37;20.43;;;;;;;8.87;74.44;94862.63;4974758;28;20206;-72
2020/12/07 01:44:18;;;;;;;31.33;20.10;;;;;;;8.79;74.70;94855.25;4979533;28;20508;-70
2020/12/07 01:46:45;;;;;;;33.60;21.17;;;;;;;8.84;74.89;94851.88;4979022;28;20541;-71
2020/12/07 01:49:11;;;;;;;35.17;22.80;;;;;;;8.91;74.45;94853.28;4991346;28;20468;-71
2020/12/07 01:51:38;;;;;;;37.13;22.60;;;;;;;8.93;74.01;94855.66;4991844;28;20430;-72
2020/12/07 01:54:09;;;;;;;32.70;20.30;;;;;;;8.82;73.80;94870.44;4991652;28;20441;-73
2020/12/07 01:56:38;;;;;;;23.75;15.63;;;;;;;8.67;74.18;94849.34;4974149;28;21026;-73
2020/12/07 01:59:11;;;;;;;13.47;9.70;;;;;;;8.63;74.09;94850.88;4978352;28;20206;-71
2020/12/07 02:01:42;;;;;;;15.07;9.13;;;;;;;8.71;73.38;94863.50;4992690;28;20500;-75
2020/12/07 02:04:10;;;;;;;11.30;8.67;;;;;;;8.72;73.03;94854.63;4973358;28;20458;-72
2020/12/07 02:06:36;;;;;;;12.07;8.43;;;;;;;8.74;73.44;94863.00;4991394;28;20449;-71
2020/12/07 02:09:04;;;;;;;11.60;8.77;;;;;;;8.66;73.14;94853.00;4973515;28;20580;-73
2020/12/07 02:11:37;;;;;;;13.57;9.50;;;;;;;8.67;73.98;94851.97;4973646;28;20452;-72
2020/12/07 02:14:04;;;;;;;11.55;8.85;;;;;;;8.65;73.72;94843.59;4973406;28;21001;-70
2020/12/07 02:16:30;;;;;;;13.77;9.73;;;;;;;8.61;74.01;94842.50;4973729;28;20669;-74
2020/12/07 02:19:00;;;;;;;12.90;9.40;;;;;;;8.36;74.09;94841.41;4973300;28;20452;-73
2020/12/07 02:21:35;;;;;;;12.83;9.97;;;;;;;8.50;74.70;94846.03;4990812;28;20575;-69
2020/12/07 02:24:11;;;;;;;13.50;9.82;;;;;;;8.60;74.06;94846.16;4990858;28;20441;-70
2020/12/07 02:26:41;;;;;;;12.80;9.50;;;;;;;8.63;74.11;94850.88;4973762;28;20584;-71
2020/12/07 02:29:07;;;;;;;12.80;9.63;;;;;;;8.66;74.13;94852.22;4972982;28;20450;-72
2020/12/07 02:31:41;;;;;;;14.03;9.70;;;;;;;8.65;74.42;94848.81;4991153;28;20191;-72
2020/12/07 02:34:08;;;;;;;13.70;9.88;;;;;;;8.79;73.46;94850.03;4973087;28;20966;-71
2020/12/07 02:36:38;;;;;;;13.67;9.67;;;;;;;8.72;73.38;94854.63;4973234;28;20759;-71
2020/12/07 02:39:16;;;;;;;14.87;9.97;;;;;;;8.88;72.94;94848.56;4972479;28;20604;-71
2020/12/07 02:41:47;;;;;;;15.05;10.10;;;;;;;8.84;73.23;94839.63;4973129;28;20980;-71
2020/12/07 02:44:15;;;;;;;15.77;10.17;;;;;;;8.73;73.41;94840.56;4972561;28;20290;-73
2020/12/07 02:46:43;;;;;;;15.77;10.60;;;;;;;8.69;73.67;94834.22;4972839;28;20886;-70
2020/12/07 02:49:12;;;;;;;15.10;10.57;;;;;;;8.75;73.55;94819.41;4972610;28;20445;-68
2020/12/07 02:51:43;;;;;;;17.00;10.93;;;;;;;8.54;74.04;94826.22;4973063;28;20926;-71
2020/12/07 02:54:13;;;;;;;18.65;12.80;;;;;;;8.52;74.56;94828.28;4972583;28;20519;-68
2020/12/07 02:56:40;;;;;;;20.65;13.65;;;;;;;8.91;73.61;94842.03;4972667;28;20216;-71
2020/12/07 02:59:06;;;;;;;28.45;17.13;;;;;;;8.78;74.80;94838.00;4971882;28;20234;-70
2020/12/07 03:01:33;;;;;;;33.83;20.77;;;;;;;8.73;74.59;94829.31;4972894;28;20210;-72
2020/12/07 03:04:00;;;;;;;37.77;22.27;;;;;;;8.89;74.13;94841.50;4972292;28;20508;-69
2020/12/07 03:06:28;;;;;;;37.57;20.93;;;;;;;8.76;74.98;94849.69;4990527;28;20441;-72
2020/12/07 03:08:58;;;;;;;29.83;18.00;;;;;;;8.61;75.04;94847.72;4972568;28;20535;-73
2020/12/07 03:11:25;;;;;;;28.67;17.23;;;;;;;8.85;74.59;94864.69;4973163;28;20449;-72
2020/12/07 03:13:52;;;;;;;22.57;14.07;;;;;;;8.66;74.85;94860.84;4973008;28;20559;-72
2020/12/07 03:16:19;;;;;;;18.27;13.15;;;;;;;8.80;75.26;94861.25;4990105;28;20464;-71
2020/12/07 03:18:46;;;;;;;18.53;12.73;;;;;;;8.82;74.27;94843.50;4972380;28;20216;-72
2020/12/07 03:21:16;;;;;;;17.37;12.80;;;;;;;8.95;74.51;94832.66;4972417;28;21094;-71
2020/12/07 03:23:48;;;;;;;18.57;12.60;;;;;;;8.87;74.24;94833.09;4972347;28;20446;-69
2020/12/07 03:26:18;;;;;;;22.27;14.77;;;;;;;8.79;74.78;94829.13;4972660;28;20540;-70
2020/12/07 03:28:45;;;;;;;23.17;15.67;;;;;;;8.64;75.95;94842.03;4972110;28;20438;-71
2020/12/07 03:31:11;;;;;;;36.10;21.87;;;;;;;8.52;76.10;94841.34;4990077;28;20963;-71
2020/12/07 03:33:38;;;;;;;38.42;22.38;;;;;;;8.50;75.47;94814.69;4972723;28;20504;-72
2020/12/07 03:36:07;;;;;;;35.22;21.60;;;;;;;8.55;75.52;94856.53;4990496;28;20190;-70
2020/12/07 03:38:36;;;;;;;34.13;21.33;;;;;;;8.71;75.43;94858.28;4972324;28;20542;-70
2020/12/07 03:41:03;;;;;;;23.97;16.83;;;;;;;8.29;75.84;94853.84;4972439;28;20719;-72
2020/12/07 03:43:35;;;;;;;16.92;12.52;;;;;;;8.62;75.57;94858.94;4972280;28;20465;-70
2020/12/07 03:46:01;;;;;;;19.70;12.98;;;;;;;8.52;75.12;94849.16;4971980;28;20206;-72
2020/12/07 03:48:31;;;;;;;16.83;12.13;;;;;;;8.70;75.05;94851.50;4972180;28;20230;-70
2020/12/07 03:50:59;;;;;;;15.77;11.17;;;;;;;8.75;75.05;94838.50;4972312;28;20269;-69
2020/12/07 03:53:31;;;;;;;16.63;11.93;;;;;;;8.71;75.02;94842.63;4972157;28;20456;-71
2020/12/07 03:55:59;;;;;;;16.95;12.00;;;;;;;8.54;75.54;94838.50;4972304;28;20465;-69
2020/12/07 03:58:26;;;;;;;16.27;10.73;;;;;;;8.40;75.76;94830.25;4972191;28;20319;-70
2020/12/07 04:00:55;;;;;;;16.13;11.63;;;;;;;8.31;75.47;94831.69;4972370;28;20458;-71
2020/12/07 04:03:22;;;;;;;13.37;10.30;;;;;;;8.21;75.92;94852.44;4989080;28;20578;-72
2020/12/07 04:08:27;;;;;;;19.27;13.20;;;;;;;8.64;74.34;94834.19;4971866;28;20445;-70
2020/12/07 04:10:53;;;;;;;21.93;14.90;;;;;;;8.80;74.00;94841.16;4992941;28;20943;-69
2020/12/07 04:13:20;;;;;;;29.57;18.60;;;;;;;8.80;73.35;94841.16;4993080;28;20492;-72
2020/12/07 04:15:46;;;;;;;37.17;22.20;;;;;;;8.80;74.16;94833.31;4993699;28;20548;-72
2020/12/07 04:18:26;;;;;;;49.10;27.70;;;;;;;8.73;74.28;94845.78;4992966;28;20835;-71
2020/12/07 04:20:54;;;;;;;51.13;28.67;;;;;;;8.69;74.41;94844.69;4993288;28;20540;-71
2020/12/07 04:23:21;;;;;;;47.37;26.07;;;;;;;8.54;74.44;94831.44;4993067;28;20893;-71
2020/12/07 04:25:47;;;;;;;48.50;26.47;;;;;;;8.64;74.70;94836.78;4993465;28;20445;-73
2020/12/07 04:28:13;;;;;;;51.90;27.47;;;;;;;8.50;75.26;94825.16;4993277;28;20784;-71
2020/12/07 04:30:40;;;;;;;48.40;25.73;;;;;;;8.40;75.58;94835.47;4993322;28;20888;-71
2020/12/07 04:33:07;;;;;;;34.77;20.77;;;;;;;8.51;75.16;94826.72;4993291;28;20436;-71
2020/12/07 04:35:34;;;;;;;26.43;16.03;;;;;;;8.42;75.33;94822.94;4992925;28;20451;-71
2020/12/07 04:38:01;;;;;;;34.90;20.47;;;;;;;8.25;75.49;94830.03;4993104;28;21011;-69
2020/12/07 04:40:28;;;;;;;42.47;24.03;;;;;;;8.33;76.01;94832.25;4992523;28;20981;-72
2020/12/07 04:42:56;;;;;;;46.13;24.23;;;;;;;8.49;75.19;94825.38;4992855;28;20508;-71
2020/12/07 04:45:23;;;;;;;42.93;23.73;;;;;;;8.60;74.58;94814.81;4992974;28;20450;-70
2020/12/07 04:47:51;;;;;;;47.60;25.92;;;;;;;8.85;74.40;94827.34;4992945;28;20830;-69
2020/12/07 04:50:22;;;;;;;50.87;27.07;;;;;;;8.68;74.50;94830.06;4992654;28;20199;-70
2020/12/07 04:52:49;;;;;;;49.90;27.17;;;;;;;8.51;74.97;94818.88;4975595;28;20449;-71
2020/12/07 04:55:17;;;;;;;48.90;27.07;;;;;;;8.61;75.24;94826.81;4992464;28;20446;-71
2020/12/07 04:57:44;;;;;;;48.50;27.63;;;;;;;8.56;75.30;94823.38;4992740;28;20492;-71
2020/12/07 05:00:11;;;;;;;48.13;27.10;;;;;;;8.59;74.56;94834.13;4992355;28;20202;-73
2020/12/07 05:02:38;;;;;;;41.70;24.33;;;;;;;8.57;74.76;94815.31;4992571;28;20438;-72
2020/12/07 05:05:06;;;;;;;35.08;20.60;;;;;;;8.46;75.21;94829.28;4994173;28;20449;-73
2020/12/07 05:07:34;;;;;;;30.73;18.57;;;;;;;8.49;75.03;94812.31;4999238;28;20191;-71
2020/12/07 05:10:12;;;;;;;27.53;17.10;;;;;;;8.62;75.18;94825.81;4994316;28;20790;-72
2020/12/07 05:12:44;;;;;;;29.80;17.40;;;;;;;8.54;74.91;94823.59;4992527;28;20448;-71
2020/12/07 05:15:13;;;;;;;28.93;17.90;;;;;;;8.40;75.90;94822.41;4987427;28;21318;-70
2020/12/07 05:17:40;;;;;;;30.67;18.53;;;;;;;8.32;75.31;94815.00;4991928;28;20516;-70
2020/12/07 05:20:07;;;;;;;30.97;18.13;;;;;;;8.39;75.35;94807.78;4991784;28;20487;-71
2020/12/07 05:22:35;;;;;;;36.15;21.02;;;;;;;8.44;75.66;94810.44;4991129;28;20478;-70
2020/12/07 05:25:05;;;;;;;31.77;19.77;;;;;;;8.23;76.02;94814.59;4991701;28;20187;-72
2020/12/07 05:27:34;;;;;;;30.42;18.70;;;;;;;8.30;76.39;94824.91;4992251;28;20194;-72
2020/12/07 05:30:12;;;;;;;37.07;21.03;;;;;;;8.47;76.29;94823.00;4991410;28;20675;-72
2020/12/07 05:32:39;;;;;;;36.43;22.17;;;;;;;8.16;76.77;94827.03;4991783;28;20440;-72
2020/12/07 05:35:07;;;;;;;33.87;20.47;;;;;;;8.23;77.68;94828.69;4991691;28;20442;-72
2020/12/07 05:37:35;;;;;;;33.22;20.60;;;;;;;8.20;77.65;94829.97;4991891;28;20492;-70
2020/12/07 05:40:13;;;;;;;29.20;18.67;;;;;;;8.33;76.83;94813.97;4991628;28;20281;-74
2020/12/07 05:42:41;;;;;;;34.58;20.00;;;;;;;8.55;76.08;94821.78;4990893;28;20198;-70
2020/12/07 05:45:09;;;;;;;34.40;20.02;;;;;;;8.58;76.92;94816.06;4985152;28;20204;-69
2020/12/07 05:47:38;;;;;;;29.13;18.40;;;;;;;8.61;77.55;94826.81;4990815;28;20241;-70
2020/12/07 05:50:08;;;;;;;40.20;27.10;;;;;;;8.58;76.53;94822.09;4989494;28;20477;-73
2020/12/07 05:52:57;;;;;;;106.47;74.07;;;;;;;8.77;76.10;94820.75;4990813;28;20453;-71
2020/12/07 05:55:24;;;;;;;24.97;16.10;;;;;;;8.81;74.99;94824.41;4988045;28;20532;-71
2020/12/07 05:57:56;;;;;;;23.57;15.27;;;;;;;8.55;75.18;94821.78;4989642;28;20473;-67
2020/12/07 06:00:24;;;;;;;18.98;12.98;;;;;;;8.42;76.06;94822.94;4989554;28;20453;-69
2020/12/07 06:02:53;;;;;;;18.30;13.40;;;;;;;8.48;75.81;94826.41;4990328;28;20190;-70
2020/12/07 06:05:23;;;;;;;19.92;13.02;;;;;;;8.40;75.31;94825.00;4990594;28;20648;-69
2020/12/07 06:08:03;;;;;;;20.83;13.57;;;;;;;8.53;74.88;94824.66;4991069;28;20198;-67
2020/12/07 06:10:38;;;;;;;18.75;13.30;;;;;;;8.33;75.12;94823.63;4990841;28;20199;-67
2020/12/07 06:13:11;;;;;;;20.23;13.55;;;;;;;8.43;75.06;94824.50;4990712;28;20229;-67
2020/12/07 06:15:43;;;;;;;113.18;84.50;;;;;;;8.45;75.19;94813.84;4990102;28;20191;-70
2020/12/07 06:18:54;;;;;;;215.57;148.50;;;;;;;8.53;75.37;94813.41;4990678;28;20233;-71
2020/12/07 06:21:22;;;;;;;19.60;13.23;;;;;;;8.25;76.40;94796.09;4990542;28;20465;-69
2020/12/07 06:23:48;;;;;;;19.40;12.97;;;;;;;8.34;75.97;94810.31;4989595;28;20194;-69
2020/12/07 06:26:17;;;;;;;20.48;13.40;;;;;;;8.60;74.56;94808.78;4990280;28;20865;-70
2020/12/07 06:28:47;;;;;;;24.80;15.40;;;;;;;8.60;74.85;94814.81;4989650;28;20285;-70
2020/12/07 06:31:16;;;;;;;21.83;14.15;;;;;;;8.58;75.18;94811.66;4990660;28;20210;-69
2020/12/07 06:33:47;;;;;;;20.70;13.68;;;;;;;8.45;74.81;94804.19;4988398;28;20205;-68
2020/12/07 06:36:33;;;;;;;25.47;17.50;;;;;;;8.47;75.34;94809.94;4990787;28;20210;-69
2020/12/07 06:39:03;;;;;;;25.15;16.05;;;;;;;8.32;76.18;94804.53;4991184;28;20547;-69
2020/12/07 06:41:35;;;;;;;20.55;13.35;;;;;;;8.39;75.38;94812.22;4990348;28;20191;-70
2020/12/07 06:44:19;;;;;;;22.75;14.63;;;;;;;8.39;75.65;94799.94;4989067;28;20195;-70
2020/12/07 06:47:13;;;;;;;18.88;12.77;;;;;;;8.30;75.76;94795.41;4989841;28;20217;-72
2020/12/07 06:52:17;;;;;;;20.77;13.53;;;;;;;8.44;74.49;94789.56;4989974;28;20202;-70
2020/12/07 06:57:39;;;;;;;24.07;15.43;;;;;;;8.71;74.48;94785.16;4990051;28;20477;-69
2020/12/07 07:00:08;;;;;;;23.50;14.82;;;;;;;8.71;73.81;94785.16;4989033;28;20441;-72
2020/12/07 07:02:38;;;;;;;22.47;15.13;;;;;;;8.86;73.60;94777.47;4990114;28;20672;-70
2020/12/07 07:05:06;;;;;;;20.97;13.97;;;;;;;8.89;73.38;94779.56;4989277;28;21332;-71
2020/12/07 07:07:33;;;;;;;22.17;14.43;;;;;;;8.73;73.13;94771.84;4989911;28;20762;-71
2020/12/07 07:10:00;;;;;;;20.77;13.73;;;;;;;8.47;74.01;94783.84;4989625;28;20446;-72
2020/12/07 07:12:27;;;;;;;27.45;15.85;;;;;;;8.57;74.89;94781.34;4989677;28;20505;-73
2020/12/07 07:14:56;;;;;;;37.67;24.33;;;;;;;8.44;74.76;94783.53;4989516;28;20573;-69
2020/12/07 07:17:25;;;;;;;43.97;25.75;;;;;;;8.66;74.42;94776.47;4989638;28;20477;-72
2020/12/07 07:19:52;;;;;;;31.45;18.38;;;;;;;8.57;75.15;94773.50;4989273;28;20235;-72
2020/12/07 07:22:19;;;;;;;29.67;16.80;;;;;;;8.73;74.49;94777.06;4989784;28;20352;-74
2020/12/07 07:25:02;;;;;;;27.43;17.43;;;;;;;8.78;74.81;94770.06;4989550;28;20437;-74
2020/12/07 07:30:16;;;;;;;23.43;14.93;;;;;;;8.58;75.07;94764.63;4990484;28;21183;-70
2020/12/07 07:32:44;;;;;;;21.97;15.67;;;;;;;8.43;75.16;94779.38;4991153;28;20822;-71
2020/12/07 07:35:13;;;;;;;23.27;13.90;;;;;;;8.37;74.94;94783.75;4989911;28;20894;-72
2020/12/07 07:37:40;;;;;;;21.83;14.63;;;;;;;8.28;75.26;94761.72;4989712;28;20210;-72
2020/12/07 07:40:11;;;;;;;23.30;15.60;;;;;;;8.39;76.00;94786.91;4988992;28;20518;-72
2020/12/07 07:42:44;;;;;;;20.67;14.27;;;;;;;8.54;75.82;94783.66;4989237;28;20440;-73
2020/12/07 07:45:17;;;;;;;18.30;13.13;;;;;;;8.70;75.32;94777.56;4991425;28;20973;-73
2020/12/07 07:59:39;;;;;;;19.75;12.93;;;;;;;8.26;75.99;94771.59;4992547;28;20512;-72
2020/12/07 08:16:21;;;;;;;34.40;23.10;;;;;;;8.22;75.93;94780.91;4973330;28;20278;-73
2020/12/07 08:18:51;;;;;;;27.50;18.23;;;;;;;8.37;75.48;94773.31;4972375;28;20513;-73
2020/12/07 08:21:33;;;;;;;19.60;13.30;;;;;;;8.35;74.59;94775.34;4972978;28;20229;-73
2020/12/07 08:24:06;;;;;;;21.92;14.63;;;;;;;8.51;74.89;94784.94;4972900;28;20230;-74
2020/12/07 08:26:41;;;;;;;20.93;14.67;;;;;;;8.60;74.70;94782.66;4973171;28;20261;-73
2020/12/07 08:29:08;;;;;;;22.33;14.30;;;;;;;8.57;74.55;94778.75;4972252;28;20453;-76
2020/12/07 08:31:39;;;;;;;22.50;13.88;;;;;;;8.49;73.65;94780.97;4973186;28;20458;-74
2020/12/07 08:34:11;;;;;;;20.33;13.88;;;;;;;8.66;73.26;94779.09;4972627;28;20215;-74
2020/12/07 08:36:40;;;;;;;21.33;13.80;;;;;;;8.51;73.65;94779.72;4973082;28;20346;-71
2020/12/07 08:39:08;;;;;;;17.07;11.97;;;;;;;8.17;74.34;94786.06;4974418;28;20241;-76
2020/12/07 08:41:36;;;;;;;20.17;13.57;;;;;;;8.47;74.12;94788.25;4992130;28;20511;-73
2020/12/07 08:44:05;;;;;;;19.30;13.23;;;;;;;8.33;73.63;94776.63;4991627;28;20456;-73
2020/12/07 08:46:33;;;;;;;17.63;12.93;;;;;;;8.52;73.67;94785.72;4974702;28;20891;-74
2020/12/07 08:49:00;;;;;;;20.27;13.40;;;;;;;8.47;73.68;94791.66;4992050;28;20532;-73
2020/12/07 08:51:32;;;;;;;18.35;13.38;;;;;;;8.59;73.54;94792.34;4992322;28;20274;-74
2020/12/07 08:53:59;;;;;;;18.45;13.13;;;;;;;8.21;73.81;94771.53;4991906;28;20332;-74
2020/12/07 08:56:26;;;;;;;21.13;13.70;;;;;;;8.27;74.08;94773.16;4991074;28;20222;-74
2020/12/07 08:58:52;;;;;;;16.27;11.93;;;;;;;8.33;73.77;94776.63;4991687;28;20289;-72
2020/12/07 09:01:19;;;;;;;18.07;13.00;;;;;;;8.48;73.91;94767.16;4991994;28;20790;-73
2020/12/07 09:03:46;;;;;;;15.67;11.47;;;;;;;8.30;73.49;94767.47;4991272;28;20465;-75
2020/12/07 09:06:15;;;;;;;14.68;11.50;;;;;;;8.21;74.32;94748.03;4992070;28;20629;-72
2020/12/07 09:08:42;;;;;;;18.53;12.10;;;;;;;8.52;73.32;94742.09;4991446;28;20591;-72
2020/12/07 09:11:11;;;;;;;16.40;11.80;;;;;;;8.47;73.60;94742.06;4991505;28;20429;-72
2020/12/07 09:13:39;;;;;;;19.38;13.68;;;;;;;8.28;74.32;94746.06;4991034;28;20457;-72
2020/12/07 09:16:06;;;;;;;17.45;12.93;;;;;;;8.36;73.69;94750.81;4992219;28;20226;-70
2020/12/07 09:18:32;;;;;;;18.87;13.13;;;;;;;8.26;74.00;94745.50;4991408;28;20207;-74
2020/12/07 09:20:59;;;;;;;18.43;13.43;;;;;;;8.28;73.86;94714.72;4991806;28;20473;-72
2020/12/07 09:23:26;;;;;;;16.90;12.37;;;;;;;8.41;73.61;94731.81;4992454;28;20445;-76
2020/12/07 09:25:52;;;;;;;19.00;12.90;;;;;;;8.53;72.94;94746.31;4992185;28;20513;-74
2020/12/07 09:28:19;;;;;;;18.77;13.30;;;;;;;8.60;73.09;94741.69;4991461;28;20649;-75
2020/12/07 09:30:46;;;;;;;15.88;12.30;;;;;;;8.52;72.94;94738.72;4991772;28;20448;-78
2020/12/07 09:33:12;;;;;;;18.58;13.18;;;;;;;8.50;73.37;94736.38;4991542;28;20194;-74
2020/12/07 09:35:39;;;;;;;18.15;13.18;;;;;;;8.36;72.92;94719.50;4991707;28;20354;-72
2020/12/07 09:38:07;;;;;;;19.27;12.30;;;;;;;8.45;72.81;94728.47;4991510;28;20272;-76
2020/12/07 09:40:33;;;;;;;15.43;11.30;;;;;;;8.43;72.48;94720.09;4991033;28;20533;-72
2020/12/07 09:43:01;;;;;;;17.80;13.13;;;;;;;8.51;72.84;94719.66;4991145;28;20540;-74
2020/12/07 09:45:31;;;;;;;19.88;14.95;;;;;;;8.60;72.18;94699.88;4990919;28;20807;-73
2020/12/07 09:48:01;;;;;;;20.48;15.50;;;;;;;8.49;72.17;94693.00;4991710;28;20309;-70
2020/12/07 09:50:33;;;;;;;100.87;64.77;;;;;;;8.71;72.03;94714.63;4994982;28;20233;-73
2020/12/07 09:52:59;;;;;;;40.60;22.87;;;;;;;8.78;71.34;94707.38;4991242;28;20433;-75
2020/12/07 09:55:26;;;;;;;14.07;10.98;;;;;;;8.73;70.80;94714.38;4990912;28;20449;-75
2020/12/07 09:57:53;;;;;;;17.67;12.07;;;;;;;8.82;71.38;94698.00;4990794;28;20268;-74
2020/12/07 10:00:20;;;;;;;14.65;11.25;;;;;;;9.03;70.84;94710.19;4989877;28;20211;-73
2020/12/07 10:02:46;;;;;;;16.25;11.32;;;;;;;8.87;71.25;94705.88;4991033;28;20595;-73
2020/12/07 10:05:13;;;;;;;17.43;11.70;;;;;;;9.09;70.37;94708.41;4973017;28;20607;-72
2020/12/07 10:07:40;;;;;;;15.50;10.43;;;;;;;8.93;70.40;94694.44;4990445;28;20430;-73
2020/12/07 10:10:06;;;;;;;15.37;10.90;;;;;;;8.88;70.21;94686.56;4990569;28;20449;-75
2020/12/07 10:12:33;;;;;;;14.63;10.60;;;;;;;8.79;70.33;94685.44;4990968;28;20504;-73
2020/12/07 10:15:03;;;;;;;14.23;10.67;;;;;;;8.77;70.82;94684.91;4990622;28;20956;-72
2020/12/07 10:17:30;;;;;;;16.73;11.93;;;;;;;8.80;71.05;94673.16;4990685;28;20798;-73
2020/12/07 10:19:56;;;;;;;17.98;11.88;;;;;;;8.86;70.60;94682.63;4990258;28;20473;-72
2020/12/07 10:22:22;;;;;;;17.45;11.38;;;;;;;8.88;70.26;94681.34;4990687;28;20203;-75
2020/12/07 10:24:51;;;;;;;15.97;12.07;;;;;;;9.03;70.05;94681.44;4989991;28;20580;-73
2020/12/07 10:27:18;;;;;;;15.43;10.73;;;;;;;8.80;70.10;94673.94;4990013;28;20541;-76
2020/12/07 10:29:44;;;;;;;16.67;12.00;;;;;;;8.74;70.44;94674.94;4989652;28;20453;-75
2020/12/07 10:32:10;;;;;;;15.80;12.33;;;;;;;8.67;70.40;94669.13;4990358;28;20543;-75
2020/12/07 10:34:38;;;;;;;13.17;10.33;;;;;;;8.68;70.22;94665.50;4990399;28;20457;-75
2020/12/07 10:37:06;;;;;;;14.57;9.60;;;;;;;8.64;69.98;94653.97;4990050;28;20472;-71
2020/12/07 10:39:33;;;;;;;14.10;10.07;;;;;;;8.60;70.10;94658.09;4989252;28;20202;-76
2020/12/07 10:42:01;;;;;;;56.47;43.42;;;;;;;8.71;70.68;94649.31;4989678;28;20418;-73
2020/12/07 10:44:28;;;;;;;15.30;12.30;;;;;;;8.53;70.61;94636.63;4989644;28;20280;-71
2020/12/07 10:46:55;;;;;;;16.27;12.77;;;;;;;8.61;70.81;94649.22;4990104;28;20457;-71
2020/12/07 10:49:21;;;;;;;16.98;12.98;;;;;;;8.46;70.75;94662.16;4989620;28;20453;-72
2020/12/07 10:51:48;;;;;;;18.90;14.47;;;;;;;8.63;70.70;94652.38;4989666;28;20230;-71
2020/12/07 10:54:14;;;;;;;19.60;15.37;;;;;;;8.63;71.21;94647.16;4989264;28;20500;-73
2020/12/07 10:56:44;;;;;;;19.00;14.80;;;;;;;8.69;70.56;94643.56;4989785;28;20995;-74
2020/12/07 10:59:12;;;;;;;21.58;14.98;;;;;;;8.62;70.78;94647.41;4989491;28;20489;-74
2020/12/07 11:01:39;;;;;;;21.47;15.30;;;;;;;8.51;71.13;94649.16;4989976;28;20261;-72
2020/12/07 11:04:06;;;;;;;22.27;15.57;;;;;;;8.53;71.64;94636.63;4989709;28;20461;-74
2020/12/07 11:06:36;;;;;;;21.73;15.33;;;;;;;8.58;71.48;94639.28;4990120;28;20210;-73
2020/12/07 11:09:11;;;;;;;19.80;15.93;;;;;;;8.55;71.47;94624.13;4989281;28;21243;-75
2020/12/07 11:11:44;;;;;;;20.53;15.67;;;;;;;8.41;71.38;94622.16;4989830;28;20206;-71
2020/12/07 11:14:10;;;;;;;23.75;16.50;;;;;;;8.36;72.70;94617.69;4989532;28;20529;-72
2020/12/07 11:16:37;;;;;;;20.08;15.95;;;;;;;8.45;72.50;94618.81;4989914;28;20579;-72
2020/12/07 11:19:03;;;;;;;22.35;16.75;;;;;;;8.32;72.45;94611.38;4989008;28;20226;-75
2020/12/07 11:21:30;;;;;;;23.97;16.03;;;;;;;8.51;72.39;94628.25;4989309;28;20605;-73
2020/12/07 11:23:56;;;;;;;19.30;14.70;;;;;;;8.34;72.42;94622.34;4989596;28;20476;-74
2020/12/07 11:26:23;;;;;;;21.20;15.93;;;;;;;8.24;72.98;94624.88;4995745;28;20441;-74
2020/12/07 11:28:49;;;;;;;23.33;16.38;;;;;;;8.46;72.36;94625.63;4991888;28;20943;-73
2020/12/07 11:31:16;;;;;;;21.77;16.40;;;;;;;8.50;72.36;94618.88;4990315;28;20688;-77
2020/12/07 11:33:44;;;;;;;25.92;17.60;;;;;;;8.71;75.49;94622.41;4989746;28;20209;-71
2020/12/07 11:36:15;;;;;;;21.07;15.53;;;;;;;8.70;72.75;94611.19;4989992;28;20206;-75
2020/12/07 11:46:05;;;;;;;30.13;19.93;;;;;;;8.66;72.16;94585.81;4989544;28;20182;-76
2020/12/07 11:48:32;;;;;;;26.45;16.85;;;;;;;8.81;71.97;94607.59;4989270;28;20578;-75
2020/12/07 11:50:58;;;;;;;20.87;16.10;;;;;;;8.71;71.82;94593.66;4989273;28;20178;-74
2020/12/07 11:53:26;;;;;;;20.03;14.17;;;;;;;8.45;72.32;94605.75;4989785;28;20441;-77
2020/12/07 11:55:53;;;;;;;21.30;15.63;;;;;;;8.38;72.97;94592.13;4990392;28;20452;-76
2020/12/07 11:58:19;;;;;;;22.00;15.17;;;;;;;8.45;72.56;94589.31;4989727;28;20564;-74
2020/12/07 12:00:45;;;;;;;20.95;16.02;;;;;;;8.18;73.60;94599.75;4989281;28;20429;-75
2020/12/07 12:03:26;;;;;;;18.75;13.52;;;;;;;8.29;73.01;94591.00;4988836;28;20273;-75
2020/12/07 12:05:52;;;;;;;20.90;14.85;;;;;;;8.25;73.21;94589.16;4989759;28;20193;-77
2020/12/07 12:08:19;;;;;;;20.98;15.60;;;;;;;8.37;73.09;94585.34;4971252;28;20575;-73
2020/12/07 12:10:49;;;;;;;23.47;17.30;;;;;;;8.56;72.79;94593.59;4989152;28;20218;-76
2020/12/07 12:13:15;;;;;;;21.20;15.80;;;;;;;8.36;72.58;94586.34;4989735;28;20912;-76
2020/12/07 12:15:42;;;;;;;22.58;15.95;;;;;;;8.53;72.32;94579.19;4989416;28;20932;-77
2020/12/07 12:18:08;;;;;;;25.10;17.10;;;;;;;8.67;72.06;94585.56;4989126;28;20210;-75